createdAt,value
2022-10-26T00:01:24.939Z,12.38
2022-10-26T00:03:57.143Z,12.37
2022-10-26T00:06:27.058Z,12.28
2022-10-26T00:08:57.540Z,12.22
2022-10-26T00:11:25.965Z,12.16
2022-10-26T00:13:54.445Z,12.11
2022-10-26T00:16:26.998Z,12.06
2022-10-26T00:18:55.955Z,12.06
2022-10-26T00:21:24.295Z,12.09
2022-10-26T00:23:52.774Z,12.12
2022-10-26T00:26:21.077Z,12.16
2022-10-26T00:28:49.425Z,12.20
2022-10-26T00:31:17.938Z,12.24
2022-10-26T00:33:46.430Z,12.27
2022-10-26T00:36:17.011Z,12.30
2022-10-26T00:38:54.240Z,12.29
2022-10-26T00:41:27.172Z,12.30
2022-10-26T00:43:56.477Z,12.31
2022-10-26T00:46:35.678Z,12.33
2022-10-26T00:51:53.895Z,12.35
2022-10-26T00:54:22.355Z,12.37
2022-10-26T00:56:54.812Z,12.40
2022-10-26T00:59:24.021Z,12.39
2022-10-26T01:01:53.282Z,12.41
2022-10-26T01:04:22.215Z,12.41
2022-10-26T01:06:52.332Z,12.41
2022-10-26T01:09:21.537Z,12.43
2022-10-26T01:11:49.850Z,12.45
2022-10-26T01:14:19.938Z,12.46
2022-10-26T01:17:10.014Z,12.47
2022-10-26T01:20:14.223Z,12.49
2022-10-26T01:23:02.883Z,12.48
2022-10-26T01:25:34.326Z,12.47
2022-10-26T01:28:11.891Z,12.52
2022-10-26T01:30:44.630Z,12.55
2022-10-26T01:33:40.327Z,12.57
2022-10-26T01:36:25.957Z,12.58
2022-10-26T01:39:21.926Z,12.64
2022-10-26T01:41:53.074Z,12.65
2022-10-26T01:44:48.354Z,12.74
2022-10-26T01:47:18.701Z,12.79
2022-10-26T01:49:57.810Z,12.83
2022-10-26T01:52:26.522Z,12.86
2022-10-26T01:55:42.000Z,12.89
2022-10-26T01:58:40.608Z,12.90
2022-10-26T02:01:52.302Z,12.91
2022-10-26T02:04:56.709Z,12.93
2022-10-26T02:08:18.910Z,12.91
2022-10-26T02:11:12.921Z,12.88
2022-10-26T02:13:52.824Z,12.89
2022-10-26T02:16:52.607Z,12.88
2022-10-26T02:19:47.085Z,12.88
2022-10-26T02:22:34.403Z,12.88
2022-10-26T02:25:09.954Z,12.88
2022-10-26T02:27:46.015Z,12.88
2022-10-26T02:30:14.460Z,12.88
2022-10-26T02:32:50.156Z,12.88
2022-10-26T02:35:23.587Z,12.88
2022-10-26T02:37:53.978Z,12.90
2022-10-26T02:40:27.583Z,12.88
2022-10-26T02:43:03.124Z,12.87
2022-10-26T02:45:38.639Z,12.86
2022-10-26T02:48:07.644Z,12.85
2022-10-26T02:50:56.104Z,12.84
2022-10-26T02:53:37.511Z,12.82
2022-10-26T02:56:20.517Z,12.81
2022-10-26T02:58:56.205Z,12.79
2022-10-26T03:01:25.441Z,12.79
2022-10-26T03:03:58.028Z,12.77
2022-10-26T03:06:27.555Z,12.78
2022-10-26T03:08:55.925Z,12.76
2022-10-26T03:11:24.319Z,12.74
2022-10-26T03:13:52.690Z,12.71
2022-10-26T03:16:21.068Z,12.69
2022-10-26T03:18:49.561Z,12.70
2022-10-26T03:21:18.042Z,12.67
2022-10-26T03:23:48.056Z,12.64
2022-10-26T03:26:16.421Z,12.61
2022-10-26T03:28:44.816Z,12.56
2022-10-26T03:31:13.172Z,12.56
2022-10-26T03:33:41.574Z,12.54
2022-10-26T03:36:10.213Z,12.51
2022-10-26T03:38:38.617Z,12.57
2022-10-26T03:41:06.884Z,12.59
2022-10-26T03:43:35.121Z,12.54
2022-10-26T03:46:03.373Z,12.51
2022-10-26T03:48:31.721Z,12.51
2022-10-26T03:51:00.428Z,12.52
2022-10-26T03:53:28.717Z,12.55
2022-10-26T03:55:57.101Z,12.54
2022-10-26T04:00:58.650Z,12.58
2022-10-26T04:03:26.973Z,12.57
2022-10-26T04:05:55.406Z,12.64
2022-10-26T04:08:23.899Z,12.67
2022-10-26T04:10:52.126Z,12.69
2022-10-26T04:13:20.465Z,12.70
2022-10-26T04:15:50.050Z,12.71
2022-10-26T04:18:18.369Z,12.71
2022-10-26T04:20:46.771Z,12.72
2022-10-26T04:23:17.906Z,12.74
2022-10-26T04:25:46.941Z,12.74
2022-10-26T04:28:15.375Z,12.75
2022-10-26T04:30:43.802Z,12.76
2022-10-26T04:33:12.857Z,12.76
2022-10-26T04:35:41.227Z,12.79
2022-10-26T04:38:10.376Z,12.79
2022-10-26T04:40:38.688Z,12.82
2022-10-26T04:43:07.166Z,12.82
2022-10-26T04:45:35.422Z,12.86
2022-10-26T04:48:07.485Z,12.89
2022-10-26T04:50:36.498Z,12.93
2022-10-26T04:53:06.380Z,12.92
2022-10-26T04:55:35.595Z,12.95
2022-10-26T04:58:04.410Z,12.98
2022-10-26T05:00:33.710Z,13.01
2022-10-26T05:03:07.194Z,13.06
2022-10-26T05:05:37.507Z,13.09
2022-10-26T05:08:06.256Z,13.14
2022-10-26T05:10:35.152Z,13.19
2022-10-26T05:13:03.626Z,13.21
2022-10-26T05:15:31.981Z,13.18
2022-10-26T05:18:05.881Z,13.21
2022-10-26T05:20:36.374Z,13.22
2022-10-26T05:23:07.874Z,13.25
2022-10-26T05:25:37.658Z,13.27
2022-10-26T05:28:12.342Z,13.28
2022-10-26T05:30:46.045Z,13.26
2022-10-26T05:33:15.289Z,13.26
2022-10-26T05:35:43.685Z,13.22
2022-10-26T05:38:17.519Z,13.17
2022-10-26T05:40:53.415Z,13.10
2022-10-26T05:43:25.042Z,13.08
2022-10-26T05:45:54.532Z,13.01
2022-10-26T05:48:34.167Z,12.98
2022-10-26T05:51:02.463Z,13.00
2022-10-26T05:53:30.742Z,13.03
2022-10-26T05:55:59.573Z,13.05
2022-10-26T05:58:28.261Z,13.09
2022-10-26T06:01:40.596Z,13.20
2022-10-26T06:04:20.900Z,13.26
2022-10-26T06:06:54.815Z,13.33
2022-10-26T06:09:23.705Z,13.35
2022-10-26T06:11:52.367Z,13.34
2022-10-26T06:14:21.110Z,13.29
2022-10-26T06:17:22.805Z,13.27
2022-10-26T06:19:57.032Z,13.21
2022-10-26T06:22:34.722Z,13.24
2022-10-26T06:25:47.705Z,13.26
2022-10-26T06:28:34.230Z,13.24
2022-10-26T06:31:03.045Z,13.24
2022-10-26T06:33:32.177Z,13.24
2022-10-26T06:36:20.826Z,13.27
2022-10-26T06:38:55.923Z,13.30
2022-10-26T06:41:25.142Z,13.35
2022-10-26T06:43:53.970Z,13.39
2022-10-26T06:46:53.058Z,13.43
2022-10-26T06:49:24.223Z,13.49
2022-10-26T06:52:19.859Z,13.53
2022-10-26T06:54:53.609Z,13.60
2022-10-26T06:57:25.352Z,13.64
2022-10-26T06:59:57.476Z,13.69
2022-10-26T07:02:26.190Z,13.75
2022-10-26T07:04:54.666Z,13.80
2022-10-26T07:07:31.292Z,13.85
2022-10-26T07:09:59.840Z,13.89
2022-10-26T07:12:32.135Z,13.93
2022-10-26T07:15:01.716Z,14.04
2022-10-26T07:17:30.777Z,14.08
2022-10-26T07:19:59.155Z,14.17
2022-10-26T07:22:27.592Z,14.18
2022-10-26T07:24:57.985Z,14.18
2022-10-26T07:27:29.069Z,14.20
2022-10-26T07:29:57.545Z,14.19
2022-10-26T07:32:25.949Z,14.17
2022-10-26T07:34:54.317Z,14.16
2022-10-26T07:37:22.622Z,14.22
2022-10-26T07:39:51.153Z,14.29
2022-10-26T07:42:20.355Z,14.37
2022-10-26T07:44:48.929Z,14.47
2022-10-26T07:47:17.612Z,14.57
2022-10-26T07:49:45.893Z,14.62
2022-10-26T07:52:14.329Z,14.66
2022-10-26T07:54:42.666Z,14.72
2022-10-26T07:57:11.025Z,14.76
2022-10-26T07:59:39.571Z,14.77
2022-10-26T08:02:10.537Z,14.79
2022-10-26T08:04:38.999Z,14.76
2022-10-26T08:07:07.438Z,14.74
2022-10-26T08:09:37.008Z,14.68
2022-10-26T08:12:05.912Z,14.70
2022-10-26T08:14:34.300Z,14.75
2022-10-26T08:17:02.689Z,14.78
2022-10-26T08:19:31.298Z,14.81
2022-10-26T08:21:59.713Z,14.91
2022-10-26T08:24:28.036Z,14.92
2022-10-26T08:26:56.559Z,14.92
2022-10-26T08:29:25.042Z,14.97
2022-10-26T08:32:00.905Z,14.98
2022-10-26T08:34:29.223Z,14.99
2022-10-26T08:36:57.702Z,15.04
2022-10-26T08:39:28.752Z,15.06
2022-10-26T08:42:31.753Z,15.12
2022-10-26T08:45:07.912Z,15.18
2022-10-26T08:47:45.182Z,15.19
2022-10-26T08:50:40.584Z,15.24
2022-10-26T08:53:27.119Z,15.27
2022-10-26T08:56:06.958Z,15.35
2022-10-26T08:58:47.236Z,15.46
2022-10-26T09:01:17.128Z,15.53
2022-10-26T09:03:45.897Z,15.56
2022-10-26T09:07:15.368Z,15.59
2022-10-26T09:10:02.028Z,15.66
2022-10-26T09:12:42.508Z,15.68
2022-10-26T09:15:14.507Z,15.76
2022-10-26T09:17:49.580Z,15.82
2022-10-26T09:20:32.401Z,15.88
2022-10-26T09:23:38.437Z,15.97
2022-10-26T09:26:25.624Z,16.06
2022-10-26T09:29:00.656Z,16.19
2022-10-26T09:31:32.177Z,16.29
2022-10-26T09:34:06.162Z,16.34
2022-10-26T09:36:36.955Z,16.36
2022-10-26T09:39:19.420Z,16.41
2022-10-26T09:41:58.510Z,16.47
2022-10-26T09:44:44.588Z,16.54
2022-10-26T09:47:29.331Z,16.63
2022-10-26T09:50:07.263Z,16.73
2022-10-26T09:52:35.565Z,16.83
2022-10-26T09:55:04.030Z,16.81
2022-10-26T09:57:32.886Z,16.85
2022-10-26T10:00:01.249Z,16.76
2022-10-26T10:02:44.074Z,16.79
2022-10-26T10:05:50.673Z,16.70
2022-10-26T10:08:26.253Z,16.64
2022-10-26T10:11:02.229Z,16.59
2022-10-26T10:13:34.067Z,16.59
2022-10-26T10:16:20.131Z,16.49
2022-10-26T10:19:01.051Z,16.51
2022-10-26T10:21:50.433Z,16.47
2022-10-26T10:24:35.189Z,16.45
2022-10-26T10:27:15.852Z,16.50
2022-10-26T10:29:50.717Z,16.52
2022-10-26T10:32:22.470Z,16.51
2022-10-26T10:34:53.233Z,16.59
2022-10-26T10:37:46.193Z,16.68
2022-10-26T10:40:21.466Z,16.77
2022-10-26T10:42:53.557Z,16.80
2022-10-26T10:45:29.873Z,16.84
2022-10-26T10:48:27.594Z,16.92
2022-10-26T10:51:03.742Z,16.98
2022-10-26T10:53:44.169Z,16.92
2022-10-26T10:56:32.124Z,16.91
2022-10-26T10:59:39.160Z,16.98
2022-10-26T11:02:41.436Z,17.03
2022-10-26T11:05:31.558Z,17.02
2022-10-26T11:08:32.171Z,17.05
2022-10-26T11:11:08.773Z,17.11
2022-10-26T11:13:41.734Z,17.11
2022-10-26T11:16:36.454Z,17.10
2022-10-26T11:19:36.909Z,17.11
2022-10-26T11:22:14.932Z,17.10
2022-10-26T11:24:55.002Z,17.13
2022-10-26T11:28:02.131Z,17.18
2022-10-26T11:30:33.974Z,17.27
2022-10-26T11:33:11.611Z,17.28
2022-10-26T11:35:53.121Z,17.34
2022-10-26T11:38:46.037Z,17.35
2022-10-26T11:41:30.241Z,17.28
2022-10-26T11:45:05.706Z,17.28
2022-10-26T11:47:55.900Z,17.19
2022-10-26T11:50:34.844Z,17.16
2022-10-26T11:53:31.881Z,17.13
2022-10-26T11:56:02.145Z,17.10
2022-10-26T11:58:32.730Z,17.06
2022-10-26T12:01:08.751Z,17.04
2022-10-26T12:03:45.779Z,17.03
2022-10-26T12:06:19.269Z,17.03
2022-10-26T12:09:08.481Z,17.05
2022-10-26T12:12:06.401Z,17.06
2022-10-26T12:14:49.866Z,17.04
2022-10-26T12:17:29.900Z,17.07
2022-10-26T12:20:19.934Z,17.11
2022-10-26T12:22:49.140Z,17.17
2022-10-26T12:25:17.581Z,17.24
2022-10-26T12:27:45.813Z,17.27
2022-10-26T12:30:24.629Z,17.25
2022-10-26T12:33:51.019Z,17.20
2022-10-26T12:36:56.498Z,17.14
2022-10-26T12:39:45.701Z,17.13
2022-10-26T12:42:17.189Z,17.08
2022-10-26T12:44:45.889Z,17.08
2022-10-26T12:47:49.591Z,17.13
2022-10-26T12:50:25.016Z,17.16
2022-10-26T12:53:10.873Z,17.13
2022-10-26T12:55:56.363Z,17.16
2022-10-26T12:59:01.098Z,17.14
2022-10-26T13:01:44.877Z,17.07
2022-10-26T13:04:37.298Z,17.04
2022-10-26T13:07:34.039Z,17.01
2022-10-26T13:10:12.987Z,17.00
2022-10-26T13:12:54.901Z,17.02
2022-10-26T13:15:36.598Z,16.98
2022-10-26T13:18:07.507Z,16.94
2022-10-26T13:20:52.213Z,16.95
2022-10-26T13:23:28.253Z,16.98
2022-10-26T13:26:05.907Z,16.99
2022-10-26T13:28:53.885Z,17.03
2022-10-26T13:31:34.687Z,17.01
2022-10-26T13:34:18.422Z,16.97
2022-10-26T13:37:15.771Z,17.01
2022-10-26T13:39:47.455Z,16.97
2022-10-26T13:42:22.758Z,16.94
2022-10-26T13:44:56.084Z,16.94
2022-10-26T13:47:30.080Z,16.95
2022-10-26T13:50:12.915Z,17.00
2022-10-26T13:53:08.513Z,17.07
2022-10-26T13:55:49.893Z,17.11
2022-10-26T13:58:36.185Z,17.20
2022-10-26T14:01:18.559Z,17.33
2022-10-26T14:03:48.979Z,17.37
2022-10-26T14:06:24.443Z,17.36
2022-10-26T14:08:56.937Z,17.29
2022-10-26T14:11:34.549Z,17.19
2022-10-26T14:14:04.659Z,17.13
2022-10-26T14:16:34.692Z,17.00
2022-10-26T14:19:03.704Z,16.90
2022-10-26T14:21:32.021Z,16.80
2022-10-26T14:24:07.729Z,16.66
2022-10-26T14:26:41.466Z,16.57
2022-10-26T14:29:22.277Z,16.48
2022-10-26T14:31:51.130Z,16.40
2022-10-26T14:34:20.069Z,16.33
2022-10-26T14:37:15.314Z,16.24
2022-10-26T14:39:47.224Z,16.12
2022-10-26T14:42:44.693Z,16.08
2022-10-26T14:45:50.210Z,15.99
2022-10-26T14:48:33.444Z,15.93
2022-10-26T14:51:25.489Z,15.89
2022-10-26T14:53:59.335Z,15.82
2022-10-26T14:56:40.518Z,15.77
2022-10-26T14:59:33.078Z,15.75
2022-10-26T15:02:37.345Z,15.72
2022-10-26T15:05:24.049Z,15.68
2022-10-26T15:07:53.341Z,15.64
2022-10-26T15:10:36.474Z,15.61
2022-10-26T15:13:31.258Z,15.58
2022-10-26T15:16:16.190Z,15.54
2022-10-26T15:18:47.382Z,15.50
2022-10-26T15:21:52.628Z,15.48
2022-10-26T15:24:21.377Z,15.40
2022-10-26T15:26:49.872Z,15.36
2022-10-26T15:29:43.540Z,15.30
2022-10-26T15:32:23.905Z,15.26
2022-10-26T15:35:13.802Z,15.19
2022-10-26T15:37:42.243Z,15.14
2022-10-26T15:40:11.812Z,15.11
2022-10-26T15:42:42.157Z,15.10
2022-10-26T15:45:33.253Z,15.08
2022-10-26T15:48:19.331Z,15.03
2022-10-26T15:50:47.616Z,14.94
2022-10-26T15:53:28.518Z,14.87
2022-10-26T15:55:59.945Z,14.83
2022-10-26T15:58:31.429Z,14.79
2022-10-26T16:00:59.886Z,14.76
2022-10-26T16:03:29.065Z,14.70
2022-10-26T16:06:00.993Z,14.66
2022-10-26T16:08:31.583Z,14.60
2022-10-26T16:10:59.770Z,14.56
2022-10-26T16:13:30.504Z,14.50
2022-10-26T16:15:58.874Z,14.47
2022-10-26T16:18:27.702Z,14.41
2022-10-26T16:20:56.593Z,14.45
2022-10-26T16:23:24.793Z,14.38
2022-10-26T16:25:54.283Z,14.40
2022-10-26T16:28:22.558Z,14.39
2022-10-26T16:30:50.922Z,14.35
2022-10-26T16:33:19.213Z,14.37
2022-10-26T16:35:59.552Z,14.38
2022-10-26T16:38:28.650Z,14.37
2022-10-26T16:41:13.292Z,14.38
2022-10-26T16:43:43.764Z,14.38
2022-10-26T16:46:19.076Z,14.38
2022-10-26T16:48:49.405Z,14.38
2022-10-26T16:51:24.091Z,14.37
2022-10-26T16:53:56.362Z,14.35
2022-10-26T16:56:30.310Z,14.34
2022-10-26T16:58:58.685Z,14.32
2022-10-26T17:01:27.216Z,14.29
2022-10-26T17:03:56.259Z,14.28
2022-10-26T17:06:24.414Z,14.25
2022-10-26T17:08:52.697Z,14.23
2022-10-26T17:11:22.109Z,14.24
2022-10-26T17:13:55.001Z,14.24
2022-10-26T17:16:24.974Z,14.27
2022-10-26T17:18:54.194Z,14.30
2022-10-26T17:21:35.101Z,14.33
2022-10-26T17:24:03.837Z,14.34
2022-10-26T17:26:32.074Z,14.37
2022-10-26T17:29:00.384Z,14.39
2022-10-26T17:31:29.083Z,14.39
2022-10-26T17:33:57.574Z,14.38
2022-10-26T17:36:27.211Z,14.35
2022-10-26T17:38:55.986Z,14.32
2022-10-26T17:41:25.148Z,14.27
2022-10-26T17:43:54.373Z,14.21
2022-10-26T17:46:26.358Z,14.17
2022-10-26T17:49:00.139Z,14.09
2022-10-26T17:51:30.139Z,14.08
2022-10-26T17:53:59.336Z,14.05
2022-10-26T17:56:32.209Z,13.99
2022-10-26T17:59:09.999Z,13.95
2022-10-26T18:01:38.785Z,13.90
2022-10-26T18:04:07.104Z,13.80
2022-10-26T18:06:35.421Z,13.74
2022-10-26T18:09:03.815Z,13.70
2022-10-26T18:14:05.638Z,13.49
2022-10-26T18:16:33.950Z,13.44
2022-10-26T18:19:05.181Z,13.37
2022-10-26T18:21:37.779Z,13.31
2022-10-26T18:24:08.403Z,13.29
2022-10-26T18:26:37.008Z,13.30
2022-10-26T18:29:06.166Z,13.28
2022-10-26T18:31:38.044Z,13.32
2022-10-26T18:34:06.996Z,13.34
2022-10-26T18:36:35.448Z,13.36
2022-10-26T18:39:03.992Z,13.37
2022-10-26T18:41:32.291Z,13.36
2022-10-26T18:44:01.960Z,13.32
2022-10-26T18:46:33.911Z,13.28
2022-10-26T18:49:02.329Z,13.31
2022-10-26T18:51:33.563Z,13.33
2022-10-26T18:54:03.132Z,13.38
2022-10-26T18:56:31.603Z,13.42
2022-10-26T18:59:01.266Z,13.47
2022-10-26T19:01:33.300Z,13.50
2022-10-26T19:04:06.093Z,13.56
2022-10-26T19:06:40.767Z,13.61
2022-10-26T19:09:10.366Z,13.65
2022-10-26T19:11:39.175Z,13.67
2022-10-26T19:14:08.261Z,13.68
2022-10-26T19:16:45.811Z,13.69
2022-10-26T19:19:17.439Z,13.70
2022-10-26T19:21:49.791Z,13.63
2022-10-26T19:24:23.822Z,13.63
2022-10-26T19:26:52.586Z,13.62
2022-10-26T19:29:21.484Z,13.55
2022-10-26T19:31:53.149Z,13.52
2022-10-26T19:34:21.893Z,13.51
2022-10-26T19:36:50.234Z,13.51
2022-10-26T19:39:18.833Z,13.46
2022-10-26T19:41:47.257Z,13.39
2022-10-26T19:44:16.710Z,13.37
2022-10-26T19:46:47.135Z,13.36
2022-10-26T19:49:17.768Z,13.34
2022-10-26T19:51:48.032Z,13.30
2022-10-26T19:54:16.271Z,13.28
2022-10-26T19:56:44.641Z,13.26
2022-10-26T19:59:13.540Z,13.24
2022-10-26T20:01:41.865Z,13.25
2022-10-26T20:04:10.302Z,13.25
2022-10-26T20:06:38.783Z,13.25
2022-10-26T20:09:07.103Z,13.25
2022-10-26T20:11:38.284Z,13.24
2022-10-26T20:14:07.897Z,13.20
2022-10-26T20:16:36.122Z,13.16
2022-10-26T20:19:04.458Z,13.14
2022-10-26T20:21:32.750Z,13.10
2022-10-26T20:24:00.985Z,13.07
2022-10-26T20:26:29.265Z,13.03
2022-10-26T20:28:57.670Z,13.01
2022-10-26T20:31:25.953Z,13.00
2022-10-26T20:33:54.294Z,12.99
2022-10-26T20:36:23.011Z,12.99
2022-10-26T20:38:52.523Z,12.96
2022-10-26T20:41:22.173Z,12.92
2022-10-26T20:43:53.297Z,12.87
2022-10-26T20:46:27.675Z,12.81
2022-10-26T20:48:56.457Z,12.76
2022-10-26T20:52:08.647Z,12.68
2022-10-26T20:54:52.144Z,12.59
2022-10-26T20:57:28.770Z,12.53
2022-10-26T21:00:07.712Z,12.48
2022-10-26T21:02:36.573Z,12.45
2022-10-26T21:05:05.734Z,12.46
2022-10-26T21:07:33.998Z,12.48
2022-10-26T21:10:02.329Z,12.48
2022-10-26T21:12:30.620Z,12.49
2022-10-26T21:14:58.883Z,12.50
2022-10-26T21:17:27.126Z,12.48
2022-10-26T21:19:55.335Z,12.46
2022-10-26T21:22:23.715Z,12.45
2022-10-26T21:24:52.312Z,12.44
2022-10-26T21:27:20.791Z,12.41
2022-10-26T21:29:49.081Z,12.33
2022-10-26T21:32:17.856Z,12.33
2022-10-26T21:34:46.234Z,12.32
2022-10-26T21:37:14.616Z,12.30
2022-10-26T21:39:43.186Z,12.27
2022-10-26T21:42:11.765Z,12.23
2022-10-26T21:44:41.360Z,12.19
2022-10-26T21:47:13.055Z,12.18
2022-10-26T21:52:14.613Z,12.16
2022-10-26T21:54:42.846Z,12.13
2022-10-26T21:57:11.068Z,12.12
2022-10-26T21:59:39.320Z,12.10
2022-10-26T22:02:07.919Z,12.07
2022-10-26T22:04:36.479Z,12.02
2022-10-26T22:07:04.985Z,11.99
2022-10-26T22:09:40.563Z,11.95
2022-10-26T22:12:18.232Z,11.93
2022-10-26T22:14:46.691Z,11.92
2022-10-26T22:17:15.272Z,11.91
2022-10-26T22:19:43.774Z,11.92
2022-10-26T22:22:12.167Z,11.92
2022-10-26T22:24:41.287Z,11.92
2022-10-26T22:27:09.874Z,11.94
2022-10-26T22:29:38.313Z,11.94
2022-10-26T22:32:06.713Z,11.93
2022-10-26T22:34:35.274Z,11.92
2022-10-26T22:37:03.665Z,11.91
2022-10-26T22:39:32.129Z,11.86
2022-10-26T22:42:00.814Z,11.78
2022-10-26T22:44:29.480Z,11.77
2022-10-26T22:46:59.469Z,11.72
2022-10-26T22:49:27.982Z,11.70
2022-10-26T22:51:56.377Z,11.67
2022-10-26T22:54:24.959Z,11.62
2022-10-26T22:56:53.434Z,11.57
2022-10-26T22:59:21.921Z,11.51
2022-10-26T23:01:50.517Z,11.51
2022-10-26T23:04:18.984Z,11.51
2022-10-26T23:06:47.240Z,11.50
2022-10-26T23:09:15.617Z,11.48
2022-10-26T23:11:43.901Z,11.49
2022-10-26T23:14:12.163Z,11.47
2022-10-26T23:16:40.558Z,11.42
2022-10-26T23:19:09.255Z,11.39
2022-10-26T23:21:37.532Z,11.37
2022-10-26T23:24:06.216Z,11.38
2022-10-26T23:26:34.883Z,11.38
2022-10-26T23:29:03.179Z,11.42
2022-10-26T23:31:31.447Z,11.43
2022-10-26T23:33:59.765Z,11.42
2022-10-26T23:36:28.108Z,11.44
2022-10-26T23:38:56.481Z,11.45
2022-10-26T23:41:24.955Z,11.45
2022-10-26T23:43:53.449Z,11.47
2022-10-26T23:46:21.878Z,11.50
2022-10-26T23:48:50.614Z,11.53
2022-10-26T23:51:18.892Z,11.58
2022-10-26T23:53:47.183Z,11.63
2022-10-26T23:56:15.529Z,11.68
2022-10-26T23:58:43.817Z,11.73
